METAR Data
IDs: Format: Raw Decoded Include TAF

Data at: 1554 UTC 15 Oct 2018

KVLD 151453Z 17006KT 10SM CLR 27/23 A3015 RMK AO2 SLP214 T02720228 50007